sensor_id;sensor_type;location;lat;lon;timestamp;pressure;altitude;pressure_sealevel;temperature;humidity
20444;BME280;10381;53.730;10.010;2022-12-07T00:03:43;100871.28;;;1.35;100.00
20444;BME280;10381;53.730;10.010;2022-12-07T00:07:44;100873.16;;;1.50;100.00
20444;BME280;10381;53.730;10.010;2022-12-07T00:11:48;100867.78;;;1.53;100.00
20444;BME280;10381;53.730;10.010;2022-12-07T00:15:49;100855.94;;;1.63;100.00
20444;BME280;10381;53.730;10.010;2022-12-07T00:19:49;100870.53;;;1.67;100.00
20444;BME280;10381;53.730;10.010;2022-12-07T00:23:51;100862.72;;;1.67;100.00
20444;BME280;10381;53.730;10.010;2022-12-07T00:27:53;100856.66;;;1.67;100.00
20444;BME280;10381;53.730;10.010;2022-12-07T00:31:55;100852.44;;;1.64;100.00
20444;BME280;10381;53.730;10.010;2022-12-07T00:35:57;100845.50;;;1.63;100.00
20444;BME280;10381;53.730;10.010;2022-12-07T00:39:58;100844.59;;;1.64;100.00
20444;BME280;10381;53.730;10.010;2022-12-07T00:43:58;100844.59;;;1.64;100.00
20444;BME280;10381;53.730;10.010;2022-12-07T00:47:58;100840.97;;;1.67;100.00
20444;BME280;10381;53.730;10.010;2022-12-07T00:51:59;100826.06;;;1.69;100.00
20444;BME280;10381;53.730;10.010;2022-12-07T00:56:05;100821.00;;;1.66;100.00
20444;BME280;10381;53.730;10.010;2022-12-07T01:00:06;100814.16;;;1.63;100.00
20444;BME280;10381;53.730;10.010;2022-12-07T01:04:07;100809.94;;;1.61;100.00
20444;BME280;10381;53.730;10.010;2022-12-07T01:08:08;100805.59;;;1.61;100.00
20444;BME280;10381;53.730;10.010;2022-12-07T01:12:08;100811.88;;;1.57;100.00
20444;BME280;10381;53.730;10.010;2022-12-07T01:16:12;100798.13;;;1.54;100.00
20444;BME280;10381;53.730;10.010;2022-12-07T01:20:13;100801.03;;;1.47;100.00
20444;BME280;10381;53.730;10.010;2022-12-07T01:24:14;100789.13;;;1.42;100.00
20444;BME280;10381;53.730;10.010;2022-12-07T01:28:14;100795.44;;;1.38;100.00
20444;BME280;10381;53.730;10.010;2022-12-07T01:32:14;100794.84;;;1.33;100.00
20444;BME280;10381;53.730;10.010;2022-12-07T01:36:18;100781.16;;;1.27;100.00
20444;BME280;10381;53.730;10.010;2022-12-07T01:40:19;100792.44;;;1.28;100.00
20444;BME280;10381;53.730;10.010;2022-12-07T01:48:34;100784.38;;;1.33;100.00
20444;BME280;10381;53.730;10.010;2022-12-07T01:52:38;100782.63;;;1.33;100.00
20444;BME280;10381;53.730;10.010;2022-12-07T01:56:44;100777.31;;;1.17;100.00
20444;BME280;10381;53.730;10.010;2022-12-07T02:00:46;100772.31;;;1.13;100.00
20444;BME280;10381;53.730;10.010;2022-12-07T02:04:46;100777.84;;;1.24;100.00
20444;BME280;10381;53.730;10.010;2022-12-07T02:08:47;100782.53;;;1.35;100.00
20444;BME280;10381;53.730;10.010;2022-12-07T02:12:52;100787.91;;;1.32;100.00
20444;BME280;10381;53.730;10.010;2022-12-07T02:21:26;100778.41;;;1.13;100.00
20444;BME280;10381;53.730;10.010;2022-12-07T02:29:41;100777.06;;;1.22;100.00
20444;BME280;10381;53.730;10.010;2022-12-07T02:33:51;100767.63;;;1.19;100.00
20444;BME280;10381;53.730;10.010;2022-12-07T02:42:07;100765.75;;;0.87;100.00
20444;BME280;10381;53.730;10.010;2022-12-07T02:46:14;100771.69;;;0.90;100.00
20444;BME280;10381;53.730;10.010;2022-12-07T02:50:19;100774.69;;;0.63;100.00
20444;BME280;10381;53.730;10.010;2022-12-07T02:54:20;100763.47;;;0.61;100.00
20444;BME280;10381;53.730;10.010;2022-12-07T02:58:30;100767.56;;;0.67;100.00
20444;BME280;10381;53.730;10.010;2022-12-07T03:06:56;100769.91;;;0.54;100.00
20444;BME280;10381;53.730;10.010;2022-12-07T03:11:21;100765.94;;;0.46;100.00
20444;BME280;10381;53.730;10.010;2022-12-07T03:16:19;100771.19;;;0.27;100.00
20444;BME280;10381;53.730;10.010;2022-12-07T03:19:59;100764.22;;;0.27;100.00
20444;BME280;10381;53.730;10.010;2022-12-07T03:24:04;100767.94;;;0.21;100.00
20444;BME280;10381;53.730;10.010;2022-12-07T03:28:07;100765.13;;;0.26;100.00
20444;BME280;10381;53.730;10.010;2022-12-07T03:32:19;100768.72;;;0.24;100.00
20444;BME280;10381;53.730;10.010;2022-12-07T03:36:30;100768.44;;;0.11;100.00
20444;BME280;10381;53.730;10.010;2022-12-07T03:40:40;100776.88;;;0.16;100.00
20444;BME280;10381;53.730;10.010;2022-12-07T03:44:44;100777.72;;;0.16;100.00
20444;BME280;10381;53.730;10.010;2022-12-07T03:48:57;100772.44;;;0.18;100.00
20444;BME280;10381;53.730;10.010;2022-12-07T03:53:08;100773.22;;;0.01;100.00
20444;BME280;10381;53.730;10.010;2022-12-07T03:57:11;100783.69;;;-0.01;100.00
20444;BME280;10381;53.730;10.010;2022-12-07T04:01:12;100776.41;;;-0.13;100.00
20444;BME280;10381;53.730;10.010;2022-12-07T04:05:12;100767.97;;;-0.18;100.00
20444;BME280;10381;53.730;10.010;2022-12-07T04:09:13;100770.03;;;-0.06;100.00
20444;BME280;10381;53.730;10.010;2022-12-07T04:13:14;100765.09;;;-0.12;100.00
20444;BME280;10381;53.730;10.010;2022-12-07T04:17:16;100767.31;;;-0.23;100.00
20444;BME280;10381;53.730;10.010;2022-12-07T04:21:16;100770.56;;;-0.18;100.00
20444;BME280;10381;53.730;10.010;2022-12-07T04:25:16;100771.56;;;-0.20;100.00
20444;BME280;10381;53.730;10.010;2022-12-07T04:29:17;100768.22;;;-0.24;100.00
20444;BME280;10381;53.730;10.010;2022-12-07T04:33:18;100776.38;;;-0.32;100.00
20444;BME280;10381;53.730;10.010;2022-12-07T04:37:18;100773.72;;;-0.30;100.00
20444;BME280;10381;53.730;10.010;2022-12-07T04:41:18;100774.28;;;-0.44;100.00
20444;BME280;10381;53.730;10.010;2022-12-07T04:45:19;100775.22;;;-0.45;100.00
20444;BME280;10381;53.730;10.010;2022-12-07T04:49:19;100768.72;;;-0.55;100.00
20444;BME280;10381;53.730;10.010;2022-12-07T04:53:20;100778.53;;;-0.41;100.00
20444;BME280;10381;53.730;10.010;2022-12-07T04:57:20;100773.06;;;-0.56;100.00
20444;BME280;10381;53.730;10.010;2022-12-07T05:01:22;100775.09;;;-0.62;100.00
20444;BME280;10381;53.730;10.010;2022-12-07T05:05:23;100764.34;;;-0.75;100.00
20444;BME280;10381;53.730;10.010;2022-12-07T05:09:24;100765.31;;;-0.78;100.00
20444;BME280;10381;53.730;10.010;2022-12-07T05:13:24;100771.56;;;-0.61;100.00
20444;BME280;10381;53.730;10.010;2022-12-07T05:17:24;100768.19;;;-0.63;100.00
20444;BME280;10381;53.730;10.010;2022-12-07T05:21:25;100767.59;;;-0.70;100.00
20444;BME280;10381;53.730;10.010;2022-12-07T05:25:25;100768.31;;;-0.67;100.00
20444;BME280;10381;53.730;10.010;2022-12-07T05:29:26;100767.72;;;-0.73;100.00
20444;BME280;10381;53.730;10.010;2022-12-07T05:33:27;100766.28;;;-0.80;100.00
20444;BME280;10381;53.730;10.010;2022-12-07T05:37:28;100764.75;;;-0.64;100.00
20444;BME280;10381;53.730;10.010;2022-12-07T05:41:28;100756.94;;;-0.64;100.00
20444;BME280;10381;53.730;10.010;2022-12-07T05:45:46;100758.50;;;-0.60;100.00
20444;BME280;10381;53.730;10.010;2022-12-07T05:49:47;100761.34;;;-0.66;100.00
20444;BME280;10381;53.730;10.010;2022-12-07T05:53:47;100753.03;;;-0.74;100.00
20444;BME280;10381;53.730;10.010;2022-12-07T05:57:47;100753.41;;;-0.63;100.00
20444;BME280;10381;53.730;10.010;2022-12-07T06:02:11;100747.41;;;-0.65;100.00
20444;BME280;10381;53.730;10.010;2022-12-07T06:06:12;100739.16;;;-0.75;100.00
20444;BME280;10381;53.730;10.010;2022-12-07T06:10:12;100741.00;;;-0.77;100.00
20444;BME280;10381;53.730;10.010;2022-12-07T06:14:12;100741.00;;;-0.77;100.00
20444;BME280;10381;53.730;10.010;2022-12-07T06:18:13;100739.50;;;-0.62;100.00
20444;BME280;10381;53.730;10.010;2022-12-07T06:22:13;100740.50;;;-0.65;100.00
20444;BME280;10381;53.730;10.010;2022-12-07T06:26:14;100730.91;;;-0.64;100.00
20444;BME280;10381;53.730;10.010;2022-12-07T06:30:14;100737.69;;;-0.60;100.00
20444;BME280;10381;53.730;10.010;2022-12-07T06:34:17;100735.00;;;-0.58;100.00
20444;BME280;10381;53.730;10.010;2022-12-07T06:38:18;100728.56;;;-0.50;100.00
20444;BME280;10381;53.730;10.010;2022-12-07T06:42:18;100718.31;;;-0.53;100.00
20444;BME280;10381;53.730;10.010;2022-12-07T06:46:19;100726.38;;;-0.59;100.00
20444;BME280;10381;53.730;10.010;2022-12-07T06:50:19;100730.78;;;-0.61;100.00
20444;BME280;10381;53.730;10.010;2022-12-07T06:54:20;100739.22;;;-0.56;100.00
20444;BME280;10381;53.730;10.010;2022-12-07T06:58:20;100737.41;;;-0.54;100.00
20444;BME280;10381;53.730;10.010;2022-12-07T07:02:20;100738.69;;;-0.44;100.00
20444;BME280;10381;53.730;10.010;2022-12-07T07:06:21;100743.78;;;-0.40;100.00
20444;BME280;10381;53.730;10.010;2022-12-07T07:10:21;100735.34;;;-0.27;100.00
20444;BME280;10381;53.730;10.010;2022-12-07T07:14:21;100739.03;;;-0.31;100.00
20444;BME280;10381;53.730;10.010;2022-12-07T07:18:22;100732.56;;;-0.22;100.00
20444;BME280;10381;53.730;10.010;2022-12-07T07:22:23;100731.06;;;-0.28;100.00
20444;BME280;10381;53.730;10.010;2022-12-07T07:26:23;100732.56;;;-0.22;100.00
20444;BME280;10381;53.730;10.010;2022-12-07T07:30:24;100739.59;;;-0.24;100.00
20444;BME280;10381;53.730;10.010;2022-12-07T07:34:24;100741.50;;;-0.28;100.00
20444;BME280;10381;53.730;10.010;2022-12-07T07:38:24;100742.13;;;-0.23;100.00
20444;BME280;10381;53.730;10.010;2022-12-07T07:42:25;100748.91;;;-0.18;100.00
20444;BME280;10381;53.730;10.010;2022-12-07T07:46:25;100751.00;;;-0.08;100.00
20444;BME280;10381;53.730;10.010;2022-12-07T07:50:25;100753.41;;;-0.03;100.00
20444;BME280;10381;53.730;10.010;2022-12-07T07:54:26;100757.94;;;-0.07;100.00
20444;BME280;10381;53.730;10.010;2022-12-07T07:58:27;100750.75;;;-0.02;100.00
20444;BME280;10381;53.730;10.010;2022-12-07T08:02:28;100760.19;;;0.01;100.00
20444;BME280;10381;53.730;10.010;2022-12-07T08:06:29;100761.75;;;0.05;100.00
20444;BME280;10381;53.730;10.010;2022-12-07T08:10:30;100760.81;;;0.06;100.00
20444;BME280;10381;53.730;10.010;2022-12-07T08:14:32;100759.00;;;0.08;100.00
20444;BME280;10381;53.730;10.010;2022-12-07T08:18:35;100755.56;;;0.08;100.00
20444;BME280;10381;53.730;10.010;2022-12-07T08:22:36;100754.63;;;0.09;100.00
20444;BME280;10381;53.730;10.010;2022-12-07T08:26:36;100744.72;;;0.17;100.00
20444;BME280;10381;53.730;10.010;2022-12-07T08:30:36;100749.94;;;0.17;100.00
20444;BME280;10381;53.730;10.010;2022-12-07T08:34:36;100754.06;;;0.21;100.00
20444;BME280;10381;53.730;10.010;2022-12-07T08:38:38;100745.13;;;0.27;100.00
20444;BME280;10381;53.730;10.010;2022-12-07T08:42:39;100753.69;;;0.29;100.00
20444;BME280;10381;53.730;10.010;2022-12-07T08:46:46;100742.38;;;0.30;100.00
20444;BME280;10381;53.730;10.010;2022-12-07T08:50:48;100743.00;;;0.35;100.00
20444;BME280;10381;53.730;10.010;2022-12-07T08:54:48;100755.78;;;0.41;100.00
20444;BME280;10381;53.730;10.010;2022-12-07T08:58:49;100758.06;;;0.47;100.00
20444;BME280;10381;53.730;10.010;2022-12-07T09:02:49;100754.19;;;0.56;100.00
20444;BME280;10381;53.730;10.010;2022-12-07T09:06:50;100753.97;;;0.60;100.00
20444;BME280;10381;53.730;10.010;2022-12-07T09:10:50;100765.94;;;0.64;100.00
20444;BME280;10381;53.730;10.010;2022-12-07T09:14:50;100763.22;;;0.68;100.00
20444;BME280;10381;53.730;10.010;2022-12-07T09:18:51;100765.50;;;0.74;100.00
20444;BME280;10381;53.730;10.010;2022-12-07T09:22:51;100766.63;;;0.87;100.00
20444;BME280;10381;53.730;10.010;2022-12-07T09:26:51;100764.06;;;0.85;100.00
20444;BME280;10381;53.730;10.010;2022-12-07T09:30:52;100765.19;;;0.99;100.00
20444;BME280;10381;53.730;10.010;2022-12-07T09:34:52;100763.56;;;0.96;100.00
20444;BME280;10381;53.730;10.010;2022-12-07T09:38:53;100762.41;;;1.02;100.00
20444;BME280;10381;53.730;10.010;2022-12-07T09:42:54;100767.97;;;1.13;100.00
20444;BME280;10381;53.730;10.010;2022-12-07T09:46:55;100766.75;;;1.20;100.00
20444;BME280;10381;53.730;10.010;2022-12-07T09:50:58;100762.25;;;1.22;100.00
20444;BME280;10381;53.730;10.010;2022-12-07T09:54:59;100763.63;;;1.30;100.00
20444;BME280;10381;53.730;10.010;2022-12-07T09:59:01;100759.81;;;1.37;100.00
20444;BME280;10381;53.730;10.010;2022-12-07T10:03:02;100757.97;;;1.39;100.00
20444;BME280;10381;53.730;10.010;2022-12-07T10:07:03;100765.56;;;1.43;100.00
20444;BME280;10381;53.730;10.010;2022-12-07T10:11:04;100777.09;;;1.57;100.00
20444;BME280;10381;53.730;10.010;2022-12-07T10:15:04;100776.22;;;1.56;100.00
20444;BME280;10381;53.730;10.010;2022-12-07T10:19:35;100775.22;;;1.59;100.00
20444;BME280;10381;53.730;10.010;2022-12-07T10:23:38;100775.34;;;1.73;100.00
20444;BME280;10381;53.730;10.010;2022-12-07T10:27:39;100771.59;;;1.79;100.00
20444;BME280;10381;53.730;10.010;2022-12-07T10:31:40;100769.41;;;1.87;100.00
20444;BME280;10381;53.730;10.010;2022-12-07T10:35:43;100767.56;;;1.89;100.00
20444;BME280;10381;53.730;10.010;2022-12-07T10:43:54;100775.00;;;1.97;100.00
20444;BME280;10381;53.730;10.010;2022-12-07T10:48:08;100771.38;;;1.99;100.00
20444;BME280;10381;53.730;10.010;2022-12-07T10:56:47;100767.09;;;2.14;100.00
20444;BME280;10381;53.730;10.010;2022-12-07T11:00:58;100751.81;;;2.24;100.00
20444;BME280;10381;53.730;10.010;2022-12-07T11:09:34;100736.47;;;2.33;100.00
20444;BME280;10381;53.730;10.010;2022-12-07T11:13:48;100733.31;;;2.43;100.00
20444;BME280;10381;53.730;10.010;2022-12-07T11:18:06;100722.84;;;2.59;100.00
20444;BME280;10381;53.730;10.010;2022-12-07T11:22:19;100711.44;;;2.60;100.00
20444;BME280;10381;53.730;10.010;2022-12-07T11:26:38;100699.91;;;2.64;100.00
20444;BME280;10381;53.730;10.010;2022-12-07T11:30:59;100686.69;;;2.51;100.00
20444;BME280;10381;53.730;10.010;2022-12-07T11:43:34;100643.75;;;2.69;100.00
20444;BME280;10381;53.730;10.010;2022-12-07T11:47:45;100633.22;;;2.71;100.00
20444;BME280;10381;53.730;10.010;2022-12-07T11:51:49;100631.75;;;2.81;100.00
20444;BME280;10381;53.730;10.010;2022-12-07T11:56:03;100612.25;;;2.87;100.00
20444;BME280;10381;53.730;10.010;2022-12-07T12:00:06;100613.09;;;3.02;100.00
20444;BME280;10381;53.730;10.010;2022-12-07T12:04:35;100613.94;;;3.02;100.00
20444;BME280;10381;53.730;10.010;2022-12-07T12:21:49;100598.16;;;3.18;100.00
20444;BME280;10381;53.730;10.010;2022-12-07T12:25:56;100605.16;;;3.32;100.00
20444;BME280;10381;53.730;10.010;2022-12-07T12:30:00;100615.28;;;3.38;100.00
20444;BME280;10381;53.730;10.010;2022-12-07T12:34:04;100608.81;;;3.44;100.00
20444;BME280;10381;53.730;10.010;2022-12-07T12:38:26;100609.13;;;3.10;100.00
20444;BME280;10381;53.730;10.010;2022-12-07T12:42:44;100604.78;;;3.09;100.00
20444;BME280;10381;53.730;10.010;2022-12-07T12:46:58;100602.72;;;3.14;100.00
20444;BME280;10381;53.730;10.010;2022-12-07T12:51:37;100615.19;;;3.11;100.00
20444;BME280;10381;53.730;10.010;2022-12-07T12:56:11;100623.56;;;3.02;100.00
20444;BME280;10381;53.730;10.010;2022-12-07T13:04:25;100632.38;;;3.15;100.00
20444;BME280;10381;53.730;10.010;2022-12-07T13:08:27;100627.31;;;3.12;100.00
20444;BME280;10381;53.730;10.010;2022-12-07T13:12:28;100620.75;;;2.90;100.00
20444;BME280;10381;53.730;10.010;2022-12-07T13:16:40;100627.09;;;2.86;100.00
20444;BME280;10381;53.730;10.010;2022-12-07T13:24:55;100628.41;;;2.79;100.00
20444;BME280;10381;53.730;10.010;2022-12-07T13:29:14;100624.16;;;2.76;100.00
20444;BME280;10381;53.730;10.010;2022-12-07T13:33:17;100623.22;;;2.63;100.00
20444;BME280;10381;53.730;10.010;2022-12-07T13:37:25;100616.16;;;2.49;100.00
20444;BME280;10381;53.730;10.010;2022-12-07T13:41:29;100620.19;;;2.55;100.00
20444;BME280;10381;53.730;10.010;2022-12-07T13:45:32;100623.16;;;2.49;100.00
20444;BME280;10381;53.730;10.010;2022-12-07T13:49:53;100622.59;;;2.44;100.00
20444;BME280;10381;53.730;10.010;2022-12-07T13:54:10;100615.19;;;2.20;100.00
20444;BME280;10381;53.730;10.010;2022-12-07T13:58:11;100616.53;;;2.11;100.00
20444;BME280;10381;53.730;10.010;2022-12-07T14:02:25;100614.72;;;1.98;100.00
20444;BME280;10381;53.730;10.010;2022-12-07T14:06:26;100620.25;;;1.91;100.00
20444;BME280;10381;53.730;10.010;2022-12-07T14:14:30;100616.91;;;1.74;100.00
20444;BME280;10381;53.730;10.010;2022-12-07T14:18:40;100612.94;;;1.66;100.00
20444;BME280;10381;53.730;10.010;2022-12-07T14:22:40;100615.34;;;1.54;100.00
20444;BME280;10381;53.730;10.010;2022-12-07T14:26:41;100616.22;;;1.54;100.00
20444;BME280;10381;53.730;10.010;2022-12-07T14:30:41;100624.00;;;1.38;100.00
20444;BME280;10381;53.730;10.010;2022-12-07T14:34:41;100618.25;;;1.32;100.00
20444;BME280;10381;53.730;10.010;2022-12-07T14:38:41;100621.03;;;1.28;100.00
20444;BME280;10381;53.730;10.010;2022-12-07T14:42:43;100618.38;;;1.13;100.00
20444;BME280;10381;53.730;10.010;2022-12-07T14:46:43;100615.63;;;0.98;100.00
20444;BME280;10381;53.730;10.010;2022-12-07T14:50:45;100615.03;;;0.76;100.00
20444;BME280;10381;53.730;10.010;2022-12-07T14:54:49;100612.22;;;0.63;100.00
20444;BME280;10381;53.730;10.010;2022-12-07T14:58:49;100619.31;;;0.42;100.00
20444;BME280;10381;53.730;10.010;2022-12-07T15:02:50;100612.50;;;0.39;100.00
20444;BME280;10381;53.730;10.010;2022-12-07T15:07:02;100618.06;;;0.32;100.00
20444;BME280;10381;53.730;10.010;2022-12-07T15:11:03;100615.72;;;0.08;100.00
20444;BME280;10381;53.730;10.010;2022-12-07T15:15:03;100605.38;;;-0.12;100.00
20444;BME280;10381;53.730;10.010;2022-12-07T15:19:04;100609.97;;;-0.17;100.00
20444;BME280;10381;53.730;10.010;2022-12-07T15:23:04;100607.78;;;-0.27;100.00
20444;BME280;10381;53.730;10.010;2022-12-07T15:27:05;100605.84;;;-0.40;100.00
20444;BME280;10381;53.730;10.010;2022-12-07T15:31:14;100599.03;;;-0.43;100.00
20444;BME280;10381;53.730;10.010;2022-12-07T15:35:15;100599.13;;;-0.46;100.00
20444;BME280;10381;53.730;10.010;2022-12-07T15:39:15;100600.63;;;-0.59;100.00
20444;BME280;10381;53.730;10.010;2022-12-07T15:43:16;100598.16;;;-0.81;100.00
20444;BME280;10381;53.730;10.010;2022-12-07T15:47:40;100595.78;;;-0.67;100.00
20444;BME280;10381;53.730;10.010;2022-12-07T15:51:42;100592.38;;;-0.69;100.00
20444;BME280;10381;53.730;10.010;2022-12-07T15:55:42;100598.34;;;-0.86;100.00
20444;BME280;10381;53.730;10.010;2022-12-07T15:59:43;100596.09;;;-1.14;100.00
20444;BME280;10381;53.730;10.010;2022-12-07T16:03:43;100598.09;;;-1.00;100.00
20444;BME280;10381;53.730;10.010;2022-12-07T16:07:44;100599.81;;;-0.80;100.00
20444;BME280;10381;53.730;10.010;2022-12-07T16:11:46;100585.78;;;-0.76;100.00
20444;BME280;10381;53.730;10.010;2022-12-07T16:15:47;100588.72;;;-0.84;100.00
20444;BME280;10381;53.730;10.010;2022-12-07T16:19:47;100590.84;;;-0.73;100.00
20444;BME280;10381;53.730;10.010;2022-12-07T16:23:47;100588.00;;;-0.88;100.00
20444;BME280;10381;53.730;10.010;2022-12-07T16:27:48;100593.81;;;-1.22;100.00
20444;BME280;10381;53.730;10.010;2022-12-07T16:31:49;100589.25;;;-1.37;100.00
20444;BME280;10381;53.730;10.010;2022-12-07T16:35:50;100590.03;;;-1.15;100.00
20444;BME280;10381;53.730;10.010;2022-12-07T16:39:51;100588.34;;;-0.95;100.00
20444;BME280;10381;53.730;10.010;2022-12-07T16:43:51;100592.63;;;-0.94;100.00
20444;BME280;10381;53.730;10.010;2022-12-07T16:47:51;100593.25;;;-0.89;100.00
20444;BME280;10381;53.730;10.010;2022-12-07T16:51:52;100594.66;;;-0.82;100.00
20444;BME280;10381;53.730;10.010;2022-12-07T16:55:52;100588.56;;;-0.81;100.00
20444;BME280;10381;53.730;10.010;2022-12-07T16:59:53;100595.31;;;-0.96;100.00
20444;BME280;10381;53.730;10.010;2022-12-07T17:03:53;100595.81;;;-1.29;100.00
20444;BME280;10381;53.730;10.010;2022-12-07T17:07:54;100584.00;;;-1.56;100.00
20444;BME280;10381;53.730;10.010;2022-12-07T17:11:55;100595.38;;;-1.81;100.00
20444;BME280;10381;53.730;10.010;2022-12-07T17:16:00;100586.25;;;-1.69;100.00
20444;BME280;10381;53.730;10.010;2022-12-07T17:20:01;100584.44;;;-1.89;100.00
20444;BME280;10381;53.730;10.010;2022-12-07T17:24:04;100584.75;;;-1.97;100.00
20444;BME280;10381;53.730;10.010;2022-12-07T17:28:05;100587.94;;;-1.47;100.00
20444;BME280;10381;53.730;10.010;2022-12-07T17:32:06;100581.47;;;-1.58;100.00
20444;BME280;10381;53.730;10.010;2022-12-07T17:36:17;100581.41;;;-1.56;100.00
20444;BME280;10381;53.730;10.010;2022-12-07T17:40:18;100570.50;;;-1.44;100.00
20444;BME280;10381;53.730;10.010;2022-12-07T17:44:18;100566.78;;;-1.38;100.00
20444;BME280;10381;53.730;10.010;2022-12-07T17:48:20;100572.44;;;-1.29;100.00
20444;BME280;10381;53.730;10.010;2022-12-07T17:52:20;100568.00;;;-1.06;100.00
20444;BME280;10381;53.730;10.010;2022-12-07T17:56:39;100569.56;;;-1.02;100.00
20444;BME280;10381;53.730;10.010;2022-12-07T18:00:40;100549.16;;;-1.11;100.00
20444;BME280;10381;53.730;10.010;2022-12-07T18:04:41;100553.25;;;-1.26;100.00
20444;BME280;10381;53.730;10.010;2022-12-07T18:08:42;100535.59;;;-1.38;100.00
20444;BME280;10381;53.730;10.010;2022-12-07T18:12:42;100533.94;;;-1.20;100.00
20444;BME280;10381;53.730;10.010;2022-12-07T18:16:42;100532.31;;;-1.23;100.00
20444;BME280;10381;53.730;10.010;2022-12-07T18:20:43;100533.19;;;-1.43;100.00
20444;BME280;10381;53.730;10.010;2022-12-07T18:24:43;100531.59;;;-1.66;100.00
20444;BME280;10381;53.730;10.010;2022-12-07T18:28:44;100530.72;;;-1.66;100.00
20444;BME280;10381;53.730;10.010;2022-12-07T18:32:44;100530.72;;;-1.66;100.00
20444;BME280;10381;53.730;10.010;2022-12-07T18:36:47;100535.41;;;-1.54;100.00
20444;BME280;10381;53.730;10.010;2022-12-07T18:40:49;100536.19;;;-1.52;100.00
20444;BME280;10381;53.730;10.010;2022-12-07T18:44:49;100520.53;;;-1.51;100.00
20444;BME280;10381;53.730;10.010;2022-12-07T18:48:49;100527.41;;;-1.50;100.00
20444;BME280;10381;53.730;10.010;2022-12-07T18:52:50;100523.09;;;-1.49;100.00
20444;BME280;10381;53.730;10.010;2022-12-07T18:56:50;100527.69;;;-1.56;100.00
20444;BME280;10381;53.730;10.010;2022-12-07T19:00:51;100524.25;;;-1.56;100.00
20444;BME280;10381;53.730;10.010;2022-12-07T19:04:53;100521.38;;;-1.70;100.00
20444;BME280;10381;53.730;10.010;2022-12-07T19:08:54;100516.69;;;-1.83;100.00
20444;BME280;10381;53.730;10.010;2022-12-07T19:12:55;100523.63;;;-1.83;100.00
20444;BME280;10381;53.730;10.010;2022-12-07T19:16:58;100525.53;;;-1.87;100.00
20444;BME280;10381;53.730;10.010;2022-12-07T19:21:02;100523.84;;;-1.67;100.00
20444;BME280;10381;53.730;10.010;2022-12-07T19:25:02;100525.66;;;-1.69;100.00
20444;BME280;10381;53.730;10.010;2022-12-07T19:29:04;100527.03;;;-1.61;100.00
20444;BME280;10381;53.730;10.010;2022-12-07T19:33:04;100515.72;;;-1.60;100.00
20444;BME280;10381;53.730;10.010;2022-12-07T19:37:05;100512.16;;;-1.57;100.00
20444;BME280;10381;53.730;10.010;2022-12-07T19:41:07;100512.78;;;-1.52;100.00
20444;BME280;10381;53.730;10.010;2022-12-07T19:45:33;100511.75;;;-1.89;100.00
20444;BME280;10381;53.730;10.010;2022-12-07T19:49:34;100510.69;;;-2.05;100.00
20444;BME280;10381;53.730;10.010;2022-12-07T19:53:35;100506.97;;;-2.20;100.00
20444;BME280;10381;53.730;10.010;2022-12-07T19:57:35;100505.81;;;-2.35;100.00
20444;BME280;10381;53.730;10.010;2022-12-07T20:01:35;100503.97;;;-2.77;100.00
20444;BME280;10381;53.730;10.010;2022-12-07T20:05:36;100499.03;;;-2.83;100.00
20444;BME280;10381;53.730;10.010;2022-12-07T20:09:37;100505.06;;;-2.61;100.00
20444;BME280;10381;53.730;10.010;2022-12-07T20:13:37;100486.25;;;-2.66;100.00
20444;BME280;10381;53.730;10.010;2022-12-07T20:17:38;100484.63;;;-2.68;100.00
20444;BME280;10381;53.730;10.010;2022-12-07T20:21:40;100484.31;;;-2.39;100.00
20444;BME280;10381;53.730;10.010;2022-12-07T20:25:41;100488.84;;;-2.22;100.00
20444;BME280;10381;53.730;10.010;2022-12-07T20:29:41;100484.84;;;-2.08;100.00
20444;BME280;10381;53.730;10.010;2022-12-07T20:33:43;100480.13;;;-1.99;100.00
20444;BME280;10381;53.730;10.010;2022-12-07T20:37:47;100468.97;;;-2.01;100.00
20444;BME280;10381;53.730;10.010;2022-12-07T20:41:48;100475.00;;;-2.00;100.00
20444;BME280;10381;53.730;10.010;2022-12-07T20:46:10;100471.50;;;-1.79;100.00
20444;BME280;10381;53.730;10.010;2022-12-07T20:50:11;100463.66;;;-1.77;100.00
20444;BME280;10381;53.730;10.010;2022-12-07T20:54:12;100468.47;;;-1.68;100.00
20444;BME280;10381;53.730;10.010;2022-12-07T20:58:12;100456.69;;;-1.77;100.00
20444;BME280;10381;53.730;10.010;2022-12-07T21:02:13;100453.19;;;-1.76;100.00
20444;BME280;10381;53.730;10.010;2022-12-07T21:06:16;100458.28;;;-1.73;100.00
20444;BME280;10381;53.730;10.010;2022-12-07T21:10:17;100459.38;;;-1.58;100.00
20444;BME280;10381;53.730;10.010;2022-12-07T21:14:17;100455.38;;;-1.46;100.00
20444;BME280;10381;53.730;10.010;2022-12-07T21:18:18;100447.75;;;-1.30;100.00
20444;BME280;10381;53.730;10.010;2022-12-07T21:22:18;100454.56;;;-1.27;100.00
20444;BME280;10381;53.730;10.010;2022-12-07T21:26:20;100455.84;;;-1.17;100.00
20444;BME280;10381;53.730;10.010;2022-12-07T21:30:21;100445.16;;;-1.11;100.00
20444;BME280;10381;53.730;10.010;2022-12-07T21:34:21;100441.56;;;-0.90;100.00
20444;BME280;10381;53.730;10.010;2022-12-07T21:38:22;100442.91;;;-0.81;100.00
20444;BME280;10381;53.730;10.010;2022-12-07T21:42:22;100429.69;;;-0.76;100.00
20444;BME280;10381;53.730;10.010;2022-12-07T21:46:26;100437.97;;;-0.68;100.00
20444;BME280;10381;53.730;10.010;2022-12-07T21:50:28;100439.53;;;-0.64;100.00
20444;BME280;10381;53.730;10.010;2022-12-07T21:54:28;100424.38;;;-0.56;100.00
20444;BME280;10381;53.730;10.010;2022-12-07T21:58:29;100432.19;;;-0.56;100.00